createdAt,value
2018-09-03T00:01:27.014Z,15.53
2018-09-03T00:03:55.223Z,15.77
2018-09-03T00:06:23.456Z,16.43
2018-09-03T00:08:51.660Z,15.67
2018-09-03T00:11:19.851Z,13.20
2018-09-03T00:13:48.035Z,14.87
2018-09-03T00:16:16.223Z,15.87
2018-09-03T00:18:44.414Z,16.23
2018-09-03T00:21:12.595Z,15.63
2018-09-03T00:23:40.784Z,16.10
2018-09-03T00:26:09.041Z,14.30
2018-09-03T00:28:37.235Z,15.70
2018-09-03T00:31:11.078Z,14.63
2018-09-03T00:33:44.757Z,16.03
2018-09-03T00:36:18.352Z,16.87
2018-09-03T00:38:52.073Z,14.17
2018-09-03T00:41:25.595Z,16.53
2018-09-03T00:43:59.294Z,15.43
2018-09-03T00:46:33.060Z,15.70
2018-09-03T00:49:01.256Z,16.70
2018-09-03T00:51:29.451Z,16.00
2018-09-03T00:53:57.643Z,15.50
2018-09-03T00:56:26.031Z,16.93
2018-09-03T00:58:54.219Z,16.17
2018-09-03T01:01:22.703Z,16.50
2018-09-03T01:03:50.908Z,15.53
2018-09-03T01:06:19.131Z,17.37
2018-09-03T01:08:47.373Z,17.70
2018-09-03T01:11:15.603Z,16.77
2018-09-03T01:13:43.806Z,17.77
2018-09-03T01:16:11.987Z,16.97
2018-09-03T01:18:40.823Z,18.27
2018-09-03T01:21:09.194Z,17.60
2018-09-03T01:23:37.424Z,16.63
2018-09-03T01:26:05.834Z,19.50
2018-09-03T01:28:34.128Z,18.33
2018-09-03T01:31:02.327Z,16.80
2018-09-03T01:33:30.525Z,17.80
2018-09-03T01:35:59.191Z,16.87
2018-09-03T01:38:27.379Z,16.63
2018-09-03T01:40:56.055Z,15.97
2018-09-03T01:43:24.296Z,16.87
2018-09-03T01:45:52.516Z,14.97
2018-09-03T01:48:20.735Z,16.37
2018-09-03T01:50:48.932Z,16.60
2018-09-03T01:53:17.121Z,16.30
2018-09-03T01:55:45.319Z,17.80
2018-09-03T01:58:13.502Z,17.90
2018-09-03T02:00:41.699Z,17.40
2018-09-03T02:03:09.882Z,15.07
2018-09-03T02:05:38.099Z,17.37
2018-09-03T02:08:06.347Z,16.93
2018-09-03T02:10:34.502Z,17.10
2018-09-03T02:13:02.731Z,17.27
2018-09-03T02:15:30.926Z,17.70
2018-09-03T02:17:59.111Z,19.13
2018-09-03T02:20:27.314Z,17.73
2018-09-03T02:22:55.507Z,16.47
2018-09-03T02:25:23.746Z,19.27
2018-09-03T02:27:51.960Z,17.70
2018-09-03T02:30:20.193Z,17.70
2018-09-03T02:32:48.376Z,15.83
2018-09-03T02:35:16.607Z,16.67
2018-09-03T02:37:44.803Z,18.03
2018-09-03T02:40:12.999Z,17.70
2018-09-03T02:42:41.191Z,18.47
2018-09-03T02:45:10.255Z,17.57
2018-09-03T02:47:38.479Z,16.80
2018-09-03T02:50:07.203Z,18.40
2018-09-03T02:52:35.670Z,19.77
2018-09-03T02:55:03.882Z,18.03
2018-09-03T02:57:32.334Z,18.83
2018-09-03T03:00:00.576Z,20.73
2018-09-03T03:02:28.771Z,21.83
2018-09-03T03:04:57.006Z,19.90
2018-09-03T03:07:25.273Z,19.93
2018-09-03T03:09:53.640Z,21.37
2018-09-03T03:12:23.619Z,20.07
2018-09-03T03:14:53.543Z,19.87
2018-09-03T03:17:22.011Z,21.83
2018-09-03T03:19:50.401Z,20.60
2018-09-03T03:22:18.767Z,21.77
2018-09-03T03:24:46.962Z,21.77
2018-09-03T03:27:15.718Z,20.30
2018-09-03T03:29:44.090Z,22.90
2018-09-03T03:32:12.288Z,24.77
2018-09-03T03:34:40.483Z,25.60
2018-09-03T03:37:09.030Z,24.37
2018-09-03T03:39:37.271Z,24.67
2018-09-03T03:42:05.674Z,22.43
2018-09-03T03:44:33.933Z,25.23
2018-09-03T03:47:02.157Z,24.67
2018-09-03T03:49:30.366Z,24.23
2018-09-03T03:51:58.602Z,25.33
2018-09-03T03:54:26.791Z,24.53
2018-09-03T03:56:54.991Z,26.10
2018-09-03T03:59:23.188Z,25.17
2018-09-03T04:01:51.402Z,24.57
2018-09-03T04:04:19.603Z,30.77
2018-09-03T04:06:47.799Z,34.10
2018-09-03T04:09:15.999Z,33.30
2018-09-03T04:11:44.199Z,43.30
2018-09-03T04:14:12.404Z,33.27
2018-09-03T04:16:40.615Z,34.77
2018-09-03T04:19:08.808Z,35.93
2018-09-03T04:21:37.022Z,34.43
2018-09-03T04:24:05.244Z,33.63
2018-09-03T04:26:33.468Z,33.77
2018-09-03T04:29:01.709Z,35.97
2018-09-03T04:31:29.998Z,34.10
2018-09-03T04:33:58.711Z,35.43
2018-09-03T04:36:26.907Z,35.07
2018-09-03T04:38:55.116Z,35.63
2018-09-03T04:41:23.315Z,34.43
2018-09-03T04:43:51.505Z,33.53
2018-09-03T04:46:19.706Z,35.83
2018-09-03T04:48:47.904Z,35.83
2018-09-03T04:51:16.095Z,36.27
2018-09-03T04:53:44.315Z,34.27
2018-09-03T04:56:12.511Z,36.47
2018-09-03T04:58:40.700Z,34.93
2018-09-03T05:01:08.951Z,29.27
2018-09-03T05:03:37.181Z,29.80
2018-09-03T05:06:05.443Z,30.00
2018-09-03T05:08:33.594Z,29.63
2018-09-03T05:11:01.839Z,30.27
2018-09-03T05:13:30.019Z,29.33
2018-09-03T05:15:58.225Z,28.97
2018-09-03T05:18:26.412Z,29.50
2018-09-03T05:20:54.611Z,28.57
2018-09-03T05:23:22.802Z,30.23
2018-09-03T05:25:51.037Z,27.83
2018-09-03T05:28:19.200Z,27.67
2018-09-03T05:30:47.547Z,27.77
2018-09-03T05:33:15.743Z,28.70
2018-09-03T05:35:43.931Z,26.40
2018-09-03T05:38:12.143Z,27.93
2018-09-03T05:40:40.381Z,29.83
2018-09-03T05:43:08.683Z,27.97
2018-09-03T05:45:37.003Z,29.03
2018-09-03T05:48:05.646Z,25.80
2018-09-03T05:50:33.883Z,49.03
2018-09-03T05:53:02.040Z,28.73
2018-09-03T05:55:30.226Z,26.97
2018-09-03T05:57:58.436Z,27.23
2018-09-03T06:00:26.635Z,27.83
2018-09-03T06:02:54.827Z,26.40
2018-09-03T06:05:23.020Z,25.43
2018-09-03T06:07:51.217Z,23.87
2018-09-03T06:10:19.458Z,55.83
2018-09-03T06:12:47.725Z,24.27
2018-09-03T06:15:15.874Z,28.70
2018-09-03T06:17:44.107Z,25.57
2018-09-03T06:20:12.271Z,30.07
2018-09-03T06:22:40.610Z,28.13
2018-09-03T06:25:08.984Z,28.53
2018-09-03T06:27:37.190Z,28.27
2018-09-03T06:30:05.497Z,30.27
2018-09-03T06:32:33.935Z,28.63
2018-09-03T06:35:02.332Z,27.10
2018-09-03T06:37:30.534Z,29.80
2018-09-03T06:39:58.730Z,29.23
2018-09-03T06:42:26.963Z,30.17
2018-09-03T06:44:55.182Z,30.70
2018-09-03T06:47:23.398Z,29.37
2018-09-03T06:49:51.595Z,29.10
2018-09-03T06:52:19.794Z,30.60
2018-09-03T06:54:47.992Z,30.60
2018-09-03T06:57:16.187Z,28.70
2018-09-03T06:59:44.382Z,31.93
2018-09-03T07:02:12.692Z,32.80
2018-09-03T07:04:41.093Z,31.53
2018-09-03T07:07:09.325Z,31.27
2018-09-03T07:09:37.527Z,32.13
2018-09-03T07:12:05.427Z,32.10
2018-09-03T07:14:33.636Z,31.63
2018-09-03T07:17:01.868Z,31.40
2018-09-03T07:19:30.059Z,31.07
2018-09-03T07:21:58.267Z,32.20
2018-09-03T07:24:26.488Z,33.20
2018-09-03T07:26:54.670Z,34.90
2018-09-03T07:29:22.919Z,33.27
2018-09-03T07:31:51.127Z,33.00
2018-09-03T07:34:19.334Z,30.20
2018-09-03T07:36:47.518Z,31.53
2018-09-03T07:39:15.747Z,34.40
2018-09-03T07:41:43.928Z,31.97
2018-09-03T07:44:12.219Z,33.93
2018-09-03T07:46:40.359Z,31.53
2018-09-03T07:49:09.297Z,32.70
2018-09-03T07:51:39.455Z,30.20
2018-09-03T07:54:08.338Z,28.53
2018-09-03T07:56:37.762Z,30.90
2018-09-03T07:59:06.195Z,29.63
2018-09-03T08:01:36.487Z,32.63
2018-09-03T08:04:04.831Z,31.37
2018-09-03T08:06:33.152Z,31.30
2018-09-03T08:09:01.894Z,32.30
2018-09-03T08:11:31.720Z,31.00
2018-09-03T08:14:00.194Z,29.83
2018-09-03T08:16:28.538Z,28.40
2018-09-03T08:18:56.998Z,29.33
2018-09-03T08:21:25.886Z,28.73
2018-09-03T08:23:54.186Z,26.93
2018-09-03T08:26:22.549Z,20.80
2018-09-03T08:28:50.821Z,23.83
2018-09-03T08:31:19.991Z,24.83
2018-09-03T08:33:48.283Z,25.90
2018-09-03T08:36:16.668Z,28.17
2018-09-03T08:38:45.030Z,22.50
2018-09-03T08:41:13.274Z,25.73
2018-09-03T08:43:42.086Z,24.37
2018-09-03T08:46:10.460Z,27.67
2018-09-03T08:48:38.945Z,23.77
2018-09-03T08:51:07.590Z,21.83
2018-09-03T08:53:35.993Z,22.90
2018-09-03T08:56:04.239Z,25.93
2018-09-03T08:58:33.523Z,24.80
2018-09-03T09:01:01.797Z,23.07
2018-09-03T09:03:35.260Z,22.37
2018-09-03T09:06:06.237Z,20.53
2018-09-03T09:08:34.896Z,19.97
2018-09-03T09:11:03.381Z,22.87
2018-09-03T09:13:31.655Z,20.20
2018-09-03T09:16:00.087Z,19.53
2018-09-03T09:18:29.016Z,17.93
2018-09-03T09:20:57.503Z,18.27
2018-09-03T09:23:26.767Z,18.07
2018-09-03T09:25:55.079Z,16.40
2018-09-03T09:28:23.407Z,17.67
2018-09-03T09:30:52.776Z,15.17
2018-09-03T09:33:21.144Z,15.57
2018-09-03T09:35:50.162Z,14.60
2018-09-03T09:38:19.299Z,17.03
2018-09-03T09:40:48.971Z,14.20
2018-09-03T09:43:17.562Z,15.57
2018-09-03T09:45:47.069Z,10.50
2018-09-03T09:48:15.950Z,11.80
2018-09-03T09:50:44.329Z,13.07
2018-09-03T09:53:12.662Z,12.27
2018-09-03T09:55:40.975Z,14.57
2018-09-03T09:58:10.036Z,10.90
2018-09-03T10:00:44.423Z,13.30
2018-09-03T10:03:12.754Z,11.87
2018-09-03T10:05:41.059Z,12.80
2018-09-03T10:08:09.482Z,14.10
2018-09-03T10:10:38.323Z,11.87
2018-09-03T10:13:06.660Z,9.63
2018-09-03T10:15:35.015Z,11.57
2018-09-03T10:18:03.594Z,8.87
2018-09-03T10:20:31.864Z,9.67
2018-09-03T10:23:00.214Z,9.33
2018-09-03T10:25:29.466Z,7.97
2018-09-03T10:27:58.029Z,9.43
2018-09-03T10:30:26.783Z,8.40
2018-09-03T10:32:55.065Z,7.50
2018-09-03T10:35:24.862Z,6.90
2018-09-03T10:37:53.506Z,7.60
2018-09-03T10:40:21.967Z,8.07
2018-09-03T10:42:50.575Z,5.77
2018-09-03T10:45:18.862Z,5.90
2018-09-03T10:47:47.717Z,6.50
2018-09-03T10:50:16.451Z,7.37
2018-09-03T10:52:45.186Z,5.00
2018-09-03T10:55:17.150Z,4.13
2018-09-03T10:57:45.428Z,6.00
2018-09-03T11:00:14.598Z,5.83
2018-09-03T11:02:43.087Z,6.00
2018-09-03T11:05:12.685Z,5.10
2018-09-03T11:07:40.975Z,5.73
2018-09-03T11:10:10.058Z,5.10
2018-09-03T11:12:38.393Z,5.50
2018-09-03T11:15:06.705Z,6.73
2018-09-03T11:17:36.532Z,7.57
2018-09-03T11:20:07.811Z,5.50
2018-09-03T11:22:35.983Z,7.33
2018-09-03T11:25:04.464Z,3.87
2018-09-03T11:27:32.939Z,6.47
2018-09-03T11:30:01.423Z,4.13
2018-09-03T11:32:29.691Z,6.60
2018-09-03T11:34:58.081Z,5.00
2018-09-03T11:37:26.461Z,4.27
2018-09-03T11:39:54.736Z,4.77
2018-09-03T11:42:22.994Z,5.30
2018-09-03T11:44:51.239Z,4.60
2018-09-03T11:47:19.672Z,3.80
2018-09-03T11:49:48.080Z,3.77
2018-09-03T11:52:16.440Z,3.60
2018-09-03T11:54:44.721Z,4.73
2018-09-03T11:57:12.984Z,5.37
2018-09-03T11:59:41.258Z,3.03
2018-09-03T12:02:09.746Z,3.27
2018-09-03T12:04:38.100Z,4.70
2018-09-03T12:07:06.898Z,2.80
2018-09-03T12:09:36.653Z,3.03
2018-09-03T12:12:04.818Z,2.70
2018-09-03T12:14:36.025Z,2.10
2018-09-03T12:17:04.187Z,2.87
2018-09-03T12:19:32.338Z,3.07
2018-09-03T12:22:00.539Z,2.90
2018-09-03T12:24:28.703Z,2.53
2018-09-03T12:26:56.886Z,4.37
2018-09-03T12:29:25.169Z,3.10
2018-09-03T12:31:53.769Z,4.73
2018-09-03T12:34:21.926Z,3.10
2018-09-03T12:36:50.132Z,3.80
2018-09-03T12:39:18.259Z,2.93
2018-09-03T12:41:46.431Z,3.97
2018-09-03T12:44:14.604Z,2.50
2018-09-03T12:46:42.803Z,3.53
2018-09-03T12:49:10.972Z,3.40
2018-09-03T12:51:39.143Z,2.63
2018-09-03T12:54:07.304Z,3.33
2018-09-03T12:56:35.462Z,3.17
2018-09-03T12:59:03.619Z,2.70
2018-09-03T13:01:31.783Z,2.40
2018-09-03T13:03:59.943Z,3.40
2018-09-03T13:06:28.108Z,3.03
2018-09-03T13:08:56.275Z,3.43
2018-09-03T13:11:24.430Z,2.80
2018-09-03T13:13:52.599Z,3.20
2018-09-03T13:16:20.763Z,3.43
2018-09-03T13:18:48.958Z,3.73
2018-09-03T13:21:17.095Z,3.03
2018-09-03T13:23:45.704Z,3.73
2018-09-03T13:26:13.970Z,3.50
2018-09-03T13:28:42.334Z,2.63
2018-09-03T13:31:10.502Z,3.07
2018-09-03T13:33:38.700Z,2.80
2018-09-03T13:36:06.906Z,3.17
2018-09-03T13:38:35.035Z,5.50
2018-09-03T13:41:03.220Z,3.20
2018-09-03T13:43:31.471Z,2.90
2018-09-03T13:45:59.647Z,3.10
2018-09-03T13:48:27.814Z,2.93
2018-09-03T13:50:55.975Z,3.00
2018-09-03T13:53:24.147Z,3.40
2018-09-03T13:55:52.299Z,3.47
2018-09-03T13:58:20.467Z,3.43
2018-09-03T14:00:48.626Z,3.20
2018-09-03T14:03:16.824Z,3.53
2018-09-03T14:05:45.055Z,2.37
2018-09-03T14:08:13.283Z,2.50
2018-09-03T14:10:41.411Z,3.30
2018-09-03T14:13:09.576Z,5.93
2018-09-03T14:15:37.798Z,2.80
2018-09-03T14:18:06.063Z,2.73
2018-09-03T14:20:34.233Z,3.10
2018-09-03T14:23:02.400Z,3.30
2018-09-03T14:25:30.564Z,3.33
2018-09-03T14:27:58.991Z,3.63
2018-09-03T14:30:27.364Z,4.13
2018-09-03T14:32:55.742Z,4.37
2018-09-03T14:35:23.899Z,2.93
2018-09-03T14:37:52.114Z,3.53
2018-09-03T14:40:20.285Z,3.50
2018-09-03T14:42:48.546Z,4.50
2018-09-03T14:45:16.668Z,3.00
2018-09-03T14:47:44.808Z,3.27
2018-09-03T14:50:12.967Z,3.83
2018-09-03T14:52:41.127Z,4.07
2018-09-03T14:55:09.303Z,4.03
2018-09-03T14:57:37.461Z,3.73
2018-09-03T15:00:06.738Z,4.87
2018-09-03T15:02:34.909Z,3.70
2018-09-03T15:05:03.075Z,4.20
2018-09-03T15:07:31.263Z,3.77
2018-09-03T15:09:59.431Z,5.03
2018-09-03T15:12:27.591Z,4.30
2018-09-03T15:14:55.863Z,4.37
2018-09-03T15:17:24.024Z,4.00
2018-09-03T15:19:52.204Z,3.50
2018-09-03T15:22:20.364Z,3.77
2018-09-03T15:24:48.551Z,6.53
2018-09-03T15:27:16.717Z,4.90
2018-09-03T15:29:44.892Z,4.80
2018-09-03T15:32:13.047Z,3.43
2018-09-03T15:34:41.211Z,4.47
2018-09-03T15:37:09.367Z,4.60
2018-09-03T15:39:37.535Z,4.67
2018-09-03T15:42:05.689Z,3.80
2018-09-03T15:44:33.854Z,4.23
2018-09-03T15:47:02.027Z,4.23
2018-09-03T15:49:30.229Z,3.93
2018-09-03T15:51:58.506Z,4.80
2018-09-03T15:54:26.670Z,3.87
2018-09-03T15:56:54.830Z,5.47
2018-09-03T15:59:23.004Z,4.50
2018-09-03T16:01:51.159Z,5.77
2018-09-03T16:04:19.322Z,4.70
2018-09-03T16:06:47.487Z,5.27
2018-09-03T16:09:15.690Z,4.70
2018-09-03T16:11:43.883Z,4.43
2018-09-03T16:14:12.057Z,5.33
2018-09-03T16:16:40.199Z,4.50
2018-09-03T16:19:08.385Z,5.87
2018-09-03T16:21:36.571Z,4.83
2018-09-03T16:24:04.827Z,10.63
2018-09-03T16:26:33.021Z,4.70
2018-09-03T16:29:01.488Z,5.33
2018-09-03T16:31:29.690Z,4.77
2018-09-03T16:33:57.859Z,5.67
2018-09-03T16:36:26.027Z,5.07
2018-09-03T16:38:54.302Z,5.40
2018-09-03T16:41:22.375Z,5.23
2018-09-03T16:43:50.545Z,4.77
2018-09-03T16:46:18.702Z,5.67
2018-09-03T16:48:46.879Z,4.53
2018-09-03T16:51:15.027Z,6.03
2018-09-03T16:53:43.183Z,4.70
2018-09-03T16:56:11.396Z,5.37
2018-09-03T16:58:39.560Z,4.33
2018-09-03T17:01:07.809Z,6.00
2018-09-03T17:03:35.899Z,4.50
2018-09-03T17:06:04.097Z,5.50
2018-09-03T17:08:32.264Z,5.33
2018-09-03T17:11:00.847Z,5.93
2018-09-03T17:13:29.254Z,5.53
2018-09-03T17:15:57.371Z,7.10
2018-09-03T17:18:25.539Z,4.93
2018-09-03T17:20:53.703Z,4.63
2018-09-03T17:23:21.875Z,5.50
2018-09-03T17:25:50.043Z,6.43
2018-09-03T17:28:18.204Z,5.33
2018-09-03T17:30:46.398Z,5.83
2018-09-03T17:33:14.595Z,4.30
2018-09-03T17:35:42.795Z,6.27
2018-09-03T17:38:11.113Z,4.50
2018-09-03T17:40:39.320Z,4.17
2018-09-03T17:43:07.517Z,6.27
2018-09-03T17:45:35.773Z,4.93
2018-09-03T17:48:03.999Z,8.20
2018-09-03T17:50:32.814Z,4.57
2018-09-03T17:53:00.997Z,5.70
2018-09-03T17:55:29.192Z,6.53
2018-09-03T17:57:57.399Z,5.87
2018-09-03T18:00:25.587Z,10.30
2018-09-03T18:02:53.843Z,8.23
2018-09-03T18:05:22.031Z,11.67
2018-09-03T18:07:50.254Z,8.93
2018-09-03T18:10:18.443Z,10.83
2018-09-03T18:12:46.631Z,9.67
2018-09-03T18:15:14.828Z,12.43
2018-09-03T18:17:43.023Z,11.10
2018-09-03T18:20:11.247Z,14.87
2018-09-03T18:22:39.490Z,12.07
2018-09-03T18:25:07.728Z,14.07
2018-09-03T18:27:35.952Z,13.23
2018-09-03T18:30:04.173Z,16.20
2018-09-03T18:32:32.310Z,11.67
2018-09-03T18:35:00.478Z,15.60
2018-09-03T18:37:28.671Z,13.43
2018-09-03T18:39:56.834Z,16.87
2018-09-03T18:42:25.003Z,14.50
2018-09-03T18:44:53.171Z,15.87
2018-09-03T18:47:21.423Z,15.77
2018-09-03T18:49:49.543Z,16.23
2018-09-03T18:52:17.718Z,13.70
2018-09-03T18:54:45.882Z,16.93
2018-09-03T18:57:14.063Z,15.17
2018-09-03T18:59:42.332Z,16.00
2018-09-03T19:02:10.508Z,13.60
2018-09-03T19:04:38.700Z,16.90
2018-09-03T19:07:06.864Z,13.70
2018-09-03T19:09:35.051Z,18.77
2018-09-03T19:12:03.259Z,13.87
2018-09-03T19:14:31.468Z,17.50
2018-09-03T19:16:59.630Z,15.20
2018-09-03T19:19:27.807Z,18.27
2018-09-03T19:21:55.971Z,15.17
2018-09-03T19:24:24.152Z,17.37
2018-09-03T19:26:52.347Z,17.00
2018-09-03T19:29:20.516Z,18.23
2018-09-03T19:31:48.721Z,16.97
2018-09-03T19:34:16.919Z,17.73
2018-09-03T19:36:45.382Z,16.47
2018-09-03T19:39:13.577Z,18.47
2018-09-03T19:41:41.779Z,15.03
2018-09-03T19:44:09.987Z,18.90
2018-09-03T19:46:38.174Z,16.33
2018-09-03T19:49:06.643Z,19.30
2018-09-03T19:51:34.835Z,15.27
2018-09-03T19:54:03.036Z,19.67
2018-09-03T19:56:31.227Z,14.10
2018-09-03T19:58:59.427Z,18.23
2018-09-03T20:01:27.650Z,14.70
2018-09-03T20:03:55.860Z,17.80
2018-09-03T20:06:24.060Z,16.33
2018-09-03T20:08:52.275Z,19.43
2018-09-03T20:11:20.467Z,15.47
2018-09-03T20:13:48.666Z,19.17
2018-09-03T20:16:16.898Z,16.57
2018-09-03T20:18:45.313Z,19.00
2018-09-03T20:21:13.553Z,16.03
2018-09-03T20:23:41.822Z,18.50
2018-09-03T20:26:10.075Z,21.17
2018-09-03T20:28:38.296Z,19.37
2018-09-03T20:31:06.604Z,15.57
2018-09-03T20:33:34.699Z,21.30
2018-09-03T20:36:02.993Z,21.83
2018-09-03T20:38:31.182Z,16.23
2018-09-03T20:40:59.387Z,20.10
2018-09-03T20:43:27.577Z,23.97
2018-09-03T20:45:55.794Z,18.30
2018-09-03T20:48:23.986Z,22.77
2018-09-03T20:50:52.198Z,21.83
2018-09-03T20:53:20.396Z,20.27
2018-09-03T20:55:48.618Z,22.40
2018-09-03T20:58:16.866Z,20.80
2018-09-03T21:00:45.127Z,23.07
2018-09-03T21:03:13.336Z,23.60
2018-09-03T21:05:41.536Z,19.10
2018-09-03T21:08:09.720Z,23.87
2018-09-03T21:10:37.939Z,18.90
2018-09-03T21:13:06.136Z,24.30
2018-09-03T21:15:34.355Z,18.37
2018-09-03T21:18:02.546Z,23.87
2018-09-03T21:20:30.744Z,19.17
2018-09-03T21:22:58.939Z,22.23
2018-09-03T21:25:27.140Z,21.33
2018-09-03T21:27:55.743Z,19.33
2018-09-03T21:30:24.291Z,22.77
2018-09-03T21:32:52.454Z,22.40
2018-09-03T21:35:20.673Z,19.23
2018-09-03T21:37:48.878Z,22.90
2018-09-03T21:40:17.063Z,20.97
2018-09-03T21:42:45.231Z,19.73
2018-09-03T21:45:13.406Z,22.57
2018-09-03T21:47:41.576Z,23.57
2018-09-03T21:50:09.886Z,18.30
2018-09-03T21:52:38.059Z,23.87
2018-09-03T21:55:06.262Z,24.30
2018-09-03T21:57:35.242Z,22.20
2018-09-03T22:00:03.435Z,21.97
2018-09-03T22:02:31.612Z,22.70
2018-09-03T22:04:59.775Z,22.97
2018-09-03T22:07:27.946Z,27.33
2018-09-03T22:09:56.118Z,22.83
2018-09-03T22:12:24.313Z,24.87
2018-09-03T22:14:52.520Z,26.73
2018-09-03T22:17:20.716Z,25.13
2018-09-03T22:19:48.903Z,26.50
2018-09-03T22:22:17.083Z,22.77
2018-09-03T22:24:45.247Z,25.70
2018-09-03T22:27:13.419Z,24.57
2018-09-03T22:29:41.615Z,21.17
2018-09-03T22:32:09.811Z,27.43
2018-09-03T22:34:38.043Z,24.47
2018-09-03T22:37:06.339Z,28.23
2018-09-03T22:39:34.607Z,24.83
2018-09-03T22:42:02.831Z,21.47
2018-09-03T22:44:31.147Z,25.10
2018-09-03T22:46:59.502Z,22.77
2018-09-03T22:49:27.744Z,30.50
2018-09-03T22:51:55.980Z,21.00
2018-09-03T22:54:24.188Z,24.73
2018-09-03T22:56:52.690Z,27.53
2018-09-03T22:59:20.887Z,24.17
2018-09-03T23:01:49.123Z,26.60
2018-09-03T23:04:17.319Z,19.83
2018-09-03T23:06:45.533Z,22.93
2018-09-03T23:09:13.727Z,21.13
2018-09-03T23:11:41.927Z,22.17
2018-09-03T23:14:10.136Z,22.37
2018-09-03T23:16:38.339Z,22.43
2018-09-03T23:19:06.538Z,18.73
2018-09-03T23:21:34.731Z,21.07
2018-09-03T23:24:03.013Z,23.77
2018-09-03T23:26:31.486Z,22.83
2018-09-03T23:28:59.711Z,23.57
2018-09-03T23:31:27.891Z,21.57
2018-09-03T23:33:56.064Z,22.57
2018-09-03T23:36:24.230Z,24.77
2018-09-03T23:38:52.395Z,22.10
2018-09-03T23:41:20.568Z,21.23
2018-09-03T23:43:48.731Z,20.70
2018-09-03T23:46:16.916Z,17.83
2018-09-03T23:48:45.084Z,26.83
2018-09-03T23:51:13.251Z,22.87
2018-09-03T23:53:41.431Z,21.70
2018-09-03T23:56:09.618Z,22.67
2018-09-03T23:58:37.791Z,27.20
